createdAt,value
2018-09-20T00:01:37.766Z,99.90
2018-09-20T00:04:06.266Z,99.90
2018-09-20T00:06:34.926Z,99.90
2018-09-20T00:09:04.887Z,99.90
2018-09-20T00:11:33.466Z,99.90
2018-09-20T00:14:02.058Z,99.90
2018-09-20T00:16:30.946Z,99.90
2018-09-20T00:18:59.562Z,99.90
2018-09-20T00:21:28.231Z,99.90
2018-09-20T00:23:56.862Z,99.90
2018-09-20T00:26:25.391Z,99.90
2018-09-20T00:28:53.845Z,99.90
2018-09-20T00:31:22.502Z,99.90
2018-09-20T00:33:51.139Z,99.90
2018-09-20T00:36:19.628Z,99.90
2018-09-20T00:38:48.159Z,99.90
2018-09-20T00:41:16.879Z,99.90
2018-09-20T00:43:45.412Z,99.90
2018-09-20T00:46:13.874Z,99.90
2018-09-20T00:48:42.358Z,99.90
2018-09-20T00:51:10.887Z,99.90
2018-09-20T00:53:39.455Z,99.90
2018-09-20T00:56:07.967Z,99.90
2018-09-20T00:58:36.664Z,99.90
2018-09-20T01:01:06.266Z,99.90
2018-09-20T01:03:34.727Z,99.90
2018-09-20T01:06:03.391Z,99.90
2018-09-20T01:08:31.904Z,99.90
2018-09-20T01:11:00.419Z,99.90
2018-09-20T01:13:28.930Z,99.90
2018-09-20T01:15:57.447Z,99.90
2018-09-20T01:18:26.112Z,99.90
2018-09-20T01:20:54.570Z,99.90
2018-09-20T01:23:23.146Z,99.90
2018-09-20T01:25:51.911Z,99.90
2018-09-20T01:28:20.391Z,99.90
2018-09-20T01:30:48.943Z,99.90
2018-09-20T01:33:17.519Z,99.90
2018-09-20T01:35:46.061Z,99.90
2018-09-20T01:38:14.715Z,99.90
2018-09-20T01:40:43.452Z,99.90
2018-09-20T01:43:12.219Z,99.90
2018-09-20T01:45:40.856Z,99.90
2018-09-20T01:48:09.326Z,99.90
2018-09-20T01:50:37.816Z,99.90
2018-09-20T01:53:06.462Z,99.90
2018-09-20T01:55:34.964Z,99.90
2018-09-20T01:58:03.464Z,99.90
2018-09-20T02:00:32.225Z,99.90
2018-09-20T02:03:00.699Z,99.90
2018-09-20T02:05:29.251Z,99.90
2018-09-20T02:07:57.847Z,99.90
2018-09-20T02:10:26.447Z,99.90
2018-09-20T02:12:55.050Z,99.90
2018-09-20T02:15:23.558Z,99.90
2018-09-20T02:17:52.065Z,99.90
2018-09-20T02:20:20.691Z,99.90
2018-09-20T02:22:49.476Z,99.90
2018-09-20T02:25:17.938Z,99.90
2018-09-20T02:27:46.491Z,99.90
2018-09-20T02:30:15.255Z,99.90
2018-09-20T02:32:43.723Z,99.90
2018-09-20T02:35:12.451Z,99.90
2018-09-20T02:37:40.967Z,99.90
2018-09-20T02:40:09.623Z,99.90
2018-09-20T02:42:38.103Z,99.90
2018-09-20T02:45:06.735Z,99.90
2018-09-20T02:47:35.479Z,99.90
2018-09-20T02:50:04.047Z,99.90
2018-09-20T02:52:32.529Z,99.90
2018-09-20T02:55:01.031Z,99.90
2018-09-20T02:57:29.520Z,99.90
2018-09-20T02:59:58.014Z,99.90
2018-09-20T03:02:26.580Z,99.90
2018-09-20T03:04:55.018Z,99.90
2018-09-20T03:07:23.563Z,99.90
2018-09-20T03:09:52.163Z,99.90
2018-09-20T03:12:20.910Z,99.90
2018-09-20T03:14:49.543Z,99.90
2018-09-20T03:17:18.043Z,99.90
2018-09-20T03:19:46.559Z,99.90
2018-09-20T03:22:15.048Z,99.90
2018-09-20T03:24:43.489Z,99.90
2018-09-20T03:27:11.959Z,99.90
2018-09-20T03:29:40.642Z,99.90
2018-09-20T03:32:09.099Z,99.90
2018-09-20T03:34:37.579Z,99.90
2018-09-20T03:37:06.337Z,99.90
2018-09-20T03:39:34.774Z,99.90
2018-09-20T03:42:03.255Z,99.90
2018-09-20T03:44:32.062Z,99.90
2018-09-20T03:47:00.515Z,99.90
2018-09-20T03:49:29.100Z,99.90
2018-09-20T03:51:58.047Z,99.90
2018-09-20T03:54:26.547Z,99.90
2018-09-20T03:56:55.047Z,99.90
2018-09-20T03:59:23.496Z,99.90
2018-09-20T04:01:52.204Z,99.90
2018-09-20T04:04:20.685Z,99.90
2018-09-20T04:06:49.291Z,99.90
2018-09-20T04:09:17.767Z,99.90
2018-09-20T04:11:46.325Z,99.90
2018-09-20T04:14:15.107Z,99.90
2018-09-20T04:16:43.622Z,99.90
2018-09-20T04:19:12.202Z,99.90
2018-09-20T04:21:40.710Z,99.90
2018-09-20T04:24:09.332Z,99.90
2018-09-20T04:26:38.055Z,99.90
2018-09-20T04:29:06.599Z,99.90
2018-09-20T04:31:35.154Z,99.90
2018-09-20T04:34:03.787Z,99.90
2018-09-20T04:36:32.372Z,99.90
2018-09-20T04:39:00.857Z,99.90
2018-09-20T04:41:29.351Z,99.90
2018-09-20T04:43:58.055Z,99.90
2018-09-20T04:46:27.383Z,99.90
2018-09-20T04:48:55.990Z,99.90
2018-09-20T04:51:24.618Z,99.90
2018-09-20T04:53:53.238Z,99.90
2018-09-20T04:56:21.827Z,99.90
2018-09-20T04:58:50.297Z,99.90
2018-09-20T05:01:18.967Z,99.90
2018-09-20T05:03:47.527Z,99.90
2018-09-20T05:06:16.112Z,99.90
2018-09-20T05:08:44.663Z,99.90
2018-09-20T05:11:13.330Z,99.90
2018-09-20T05:13:41.952Z,99.90
2018-09-20T05:16:10.500Z,99.90
2018-09-20T05:18:39.128Z,99.90
2018-09-20T05:21:07.715Z,99.90
2018-09-20T05:23:36.283Z,99.90
2018-09-20T05:26:04.850Z,99.90
2018-09-20T05:28:33.969Z,99.90
2018-09-20T05:31:02.638Z,99.90
2018-09-20T05:33:31.149Z,99.90
2018-09-20T05:36:00.031Z,99.90
2018-09-20T05:38:28.491Z,99.90
2018-09-20T05:40:57.147Z,99.90
2018-09-20T05:43:25.728Z,99.90
2018-09-20T05:45:54.135Z,99.90
2018-09-20T05:48:22.930Z,99.90
2018-09-20T05:50:51.549Z,99.90
2018-09-20T05:53:20.038Z,99.90
2018-09-20T05:55:48.579Z,99.90
2018-09-20T05:58:17.150Z,99.90
2018-09-20T06:00:45.846Z,99.90
2018-09-20T06:03:14.514Z,99.90
2018-09-20T06:05:43.340Z,99.90
2018-09-20T06:08:11.836Z,99.90
2018-09-20T06:10:40.459Z,99.90
2018-09-20T06:13:09.078Z,99.90
2018-09-20T06:15:37.679Z,99.90
2018-09-20T06:18:06.523Z,99.90
2018-09-20T06:20:35.163Z,99.90
2018-09-20T06:23:03.676Z,99.90
2018-09-20T06:25:33.034Z,99.90
2018-09-20T06:28:01.693Z,99.90
2018-09-20T06:30:30.206Z,99.90
2018-09-20T06:32:58.683Z,99.90
2018-09-20T06:35:27.347Z,99.90
2018-09-20T06:37:55.943Z,99.90
2018-09-20T06:40:24.586Z,99.90
2018-09-20T06:42:53.079Z,99.90
2018-09-20T06:45:21.646Z,99.90
2018-09-20T06:47:50.293Z,99.90
2018-09-20T06:50:18.920Z,99.90
2018-09-20T06:52:47.638Z,99.90
2018-09-20T06:55:16.288Z,99.90
2018-09-20T06:57:44.951Z,99.90
2018-09-20T07:00:13.607Z,99.90
2018-09-20T07:02:42.114Z,99.90
2018-09-20T07:05:10.641Z,99.90
2018-09-20T07:07:39.105Z,99.90
2018-09-20T07:10:07.871Z,99.90
2018-09-20T07:12:36.454Z,99.90
2018-09-20T07:15:05.439Z,99.90
2018-09-20T07:17:34.200Z,99.90
2018-09-20T07:20:02.832Z,99.90
2018-09-20T07:22:31.295Z,99.90
2018-09-20T07:24:59.833Z,99.90
2018-09-20T07:27:28.514Z,99.90
2018-09-20T07:29:57.123Z,99.90
2018-09-20T07:32:25.619Z,99.90
2018-09-20T07:34:54.083Z,99.90
2018-09-20T07:37:22.591Z,99.90
2018-09-20T07:39:51.191Z,99.90
2018-09-20T07:42:19.675Z,99.90
2018-09-20T07:44:48.147Z,99.90
2018-09-20T07:47:16.721Z,99.90
2018-09-20T07:49:45.180Z,99.90
2018-09-20T07:52:13.714Z,99.90
2018-09-20T07:54:42.227Z,99.90
2018-09-20T07:57:10.887Z,99.90
2018-09-20T07:59:39.453Z,99.90
2018-09-20T08:02:08.102Z,99.90
2018-09-20T08:04:36.569Z,99.90
2018-09-20T08:07:05.284Z,99.90
2018-09-20T08:09:33.803Z,99.90
2018-09-20T08:12:02.463Z,99.90
2018-09-20T08:14:30.994Z,99.90
2018-09-20T08:16:59.714Z,99.90
2018-09-20T08:19:28.223Z,99.90
2018-09-20T08:21:56.815Z,99.90
2018-09-20T08:24:25.314Z,99.90
2018-09-20T08:26:53.922Z,99.90
2018-09-20T08:29:22.562Z,99.90
2018-09-20T08:31:51.132Z,99.90
2018-09-20T08:34:19.728Z,99.90
2018-09-20T08:36:48.223Z,99.90
2018-09-20T08:39:16.903Z,99.90
2018-09-20T08:41:45.384Z,99.90
2018-09-20T08:44:13.843Z,99.90
2018-09-20T08:46:42.322Z,99.90
2018-09-20T08:49:11.301Z,99.90
2018-09-20T08:51:39.882Z,99.90
2018-09-20T08:54:08.368Z,99.90
2018-09-20T08:56:37.052Z,99.90
2018-09-20T08:59:05.623Z,99.90
2018-09-20T09:01:34.259Z,99.90
2018-09-20T09:04:02.824Z,99.90
2018-09-20T09:06:31.379Z,99.90
2018-09-20T09:09:00.067Z,99.90
2018-09-20T09:11:28.900Z,99.90
2018-09-20T09:13:57.527Z,99.90
2018-09-20T09:16:26.012Z,99.90
2018-09-20T09:18:54.602Z,99.90
2018-09-20T09:21:23.070Z,99.90
2018-09-20T09:23:51.584Z,99.90
2018-09-20T09:26:20.144Z,99.90
2018-09-20T09:28:48.736Z,99.90
2018-09-20T09:31:17.386Z,99.90
2018-09-20T09:33:46.190Z,99.90
2018-09-20T09:36:14.845Z,99.90
2018-09-20T09:38:43.463Z,99.90
2018-09-20T09:41:12.027Z,99.90
2018-09-20T09:43:40.631Z,99.90
2018-09-20T09:46:09.189Z,99.90
2018-09-20T09:48:37.829Z,99.90
2018-09-20T09:51:06.527Z,99.90
2018-09-20T09:53:35.054Z,99.90
2018-09-20T09:56:03.818Z,99.90
2018-09-20T09:58:32.420Z,99.90
2018-09-20T10:01:01.284Z,99.90
2018-09-20T10:03:29.826Z,99.90
2018-09-20T10:05:58.626Z,99.90
2018-09-20T10:08:27.186Z,99.90
2018-09-20T10:10:55.668Z,99.90
2018-09-20T10:13:24.516Z,99.90
2018-09-20T10:15:52.935Z,99.90
2018-09-20T10:18:21.556Z,99.90
2018-09-20T10:20:50.166Z,99.90
2018-09-20T10:23:18.715Z,99.90
2018-09-20T10:25:47.356Z,99.90
2018-09-20T10:28:15.992Z,99.90
2018-09-20T10:30:44.450Z,99.90
2018-09-20T10:33:13.008Z,99.90
2018-09-20T10:35:41.715Z,99.90
2018-09-20T10:38:10.211Z,99.90
2018-09-20T10:40:38.849Z,99.90
2018-09-20T10:43:07.560Z,99.90
2018-09-20T10:45:36.434Z,99.90
2018-09-20T10:48:05.097Z,99.80
2018-09-20T10:50:33.597Z,99.20
2018-09-20T10:53:02.151Z,99.20
2018-09-20T10:55:30.671Z,99.00
2018-09-20T10:57:59.627Z,99.80
2018-09-20T11:00:28.288Z,99.30
2018-09-20T11:02:56.823Z,99.60
2018-09-20T11:05:25.487Z,99.10
2018-09-20T11:07:53.954Z,98.80
2018-09-20T11:10:22.627Z,98.70
2018-09-20T11:12:51.194Z,98.50
2018-09-20T11:15:19.979Z,99.30
2018-09-20T11:17:49.070Z,98.00
2018-09-20T11:20:17.673Z,98.20
2018-09-20T11:22:46.254Z,97.80
2018-09-20T11:28:16.778Z,98.10
2018-09-20T11:30:45.435Z,98.30
2018-09-20T11:33:14.331Z,97.80
2018-09-20T11:35:43.044Z,97.40
2018-09-20T11:38:11.871Z,98.20
2018-09-20T11:40:40.527Z,96.90
2018-09-20T11:43:09.007Z,97.10
2018-09-20T11:45:37.511Z,97.60
2018-09-20T11:48:06.068Z,96.80
2018-09-20T11:50:34.731Z,96.40
2018-09-20T11:53:03.403Z,96.30
2018-09-20T11:55:32.040Z,96.90
2018-09-20T11:58:00.567Z,96.10
2018-09-20T12:00:29.063Z,96.40
2018-09-20T12:02:57.529Z,96.10
2018-09-20T12:05:26.010Z,96.20
2018-09-20T12:07:55.347Z,96.30
2018-09-20T12:10:24.045Z,95.90
2018-09-20T12:12:52.797Z,95.40
2018-09-20T12:15:21.702Z,95.10
2018-09-20T12:17:50.389Z,94.70
2018-09-20T12:20:18.895Z,94.50
2018-09-20T12:22:47.475Z,94.90
2018-09-20T12:25:16.158Z,95.00
2018-09-20T12:27:44.671Z,95.10
2018-09-20T12:30:13.356Z,95.00
2018-09-20T12:32:42.244Z,95.40
2018-09-20T12:35:10.826Z,94.70
2018-09-20T12:37:39.737Z,94.50
2018-09-20T12:40:09.320Z,94.50
2018-09-20T12:42:37.998Z,94.30
2018-09-20T12:45:07.026Z,94.20
2018-09-20T12:47:35.810Z,94.40
2018-09-20T12:50:04.627Z,94.50
2018-09-20T12:52:33.177Z,94.50
2018-09-20T12:55:01.789Z,94.40
2018-09-20T12:57:30.393Z,94.60
2018-09-20T12:59:59.049Z,95.10
2018-09-20T13:02:27.635Z,94.40
2018-09-20T13:04:56.207Z,94.40
2018-09-20T13:07:24.814Z,94.40
2018-09-20T13:09:53.340Z,94.40
2018-09-20T13:12:21.911Z,94.50
2018-09-20T13:14:50.623Z,94.10
2018-09-20T13:17:19.195Z,94.10
2018-09-20T13:19:47.941Z,94.00
2018-09-20T13:22:16.359Z,94.10
2018-09-20T13:24:44.908Z,94.70
2018-09-20T13:27:13.514Z,94.40
2018-09-20T13:29:42.239Z,94.70
2018-09-20T13:32:10.759Z,94.60
2018-09-20T13:34:39.263Z,94.80
2018-09-20T13:37:07.917Z,94.80
2018-09-20T13:39:36.503Z,94.80
2018-09-20T13:42:05.038Z,94.60
2018-09-20T13:44:33.651Z,94.10
2018-09-20T13:47:02.171Z,93.90
2018-09-20T13:49:30.829Z,94.00
2018-09-20T13:51:59.320Z,94.40
2018-09-20T13:54:27.944Z,95.20
2018-09-20T13:56:56.572Z,94.30
2018-09-20T13:59:25.422Z,94.00
2018-09-20T14:01:54.135Z,94.00
2018-09-20T14:04:22.707Z,94.40
2018-09-20T14:06:51.503Z,94.20
2018-09-20T14:09:20.130Z,94.30
2018-09-20T14:11:48.721Z,94.50
2018-09-20T14:14:17.544Z,94.10
2018-09-20T14:16:46.128Z,94.60
2018-09-20T14:19:14.913Z,94.40
2018-09-20T14:21:43.603Z,94.00
2018-09-20T14:24:12.070Z,94.20
2018-09-20T14:26:40.779Z,94.00
2018-09-20T14:29:09.428Z,94.00
2018-09-20T14:31:37.919Z,94.50
2018-09-20T14:34:07.460Z,94.20
2018-09-20T14:36:36.118Z,93.60
2018-09-20T14:39:06.972Z,93.90
2018-09-20T14:41:35.549Z,93.80
2018-09-20T14:44:04.152Z,94.20
2018-09-20T14:46:33.037Z,93.60
2018-09-20T14:49:01.551Z,93.70
2018-09-20T14:51:30.178Z,93.70
2018-09-20T14:53:58.720Z,94.20
2018-09-20T14:56:27.242Z,94.00
2018-09-20T14:58:55.924Z,93.90
2018-09-20T15:01:24.429Z,93.90
2018-09-20T15:03:53.125Z,93.60
2018-09-20T15:06:21.673Z,94.00
2018-09-20T15:08:50.352Z,93.40
2018-09-20T15:11:18.984Z,93.50
2018-09-20T15:13:48.032Z,93.60
2018-09-20T15:16:16.740Z,92.90
2018-09-20T15:18:45.315Z,92.70
2018-09-20T15:21:13.866Z,93.00
2018-09-20T15:23:42.616Z,93.40
2018-09-20T15:26:11.097Z,93.20
2018-09-20T15:28:39.657Z,93.40
2018-09-20T15:31:08.257Z,93.20
2018-09-20T15:33:36.887Z,93.50
2018-09-20T15:36:05.544Z,93.60
2018-09-20T15:38:34.153Z,92.90
2018-09-20T15:41:02.694Z,92.30
2018-09-20T15:43:31.296Z,92.00
2018-09-20T15:45:59.904Z,92.90
2018-09-20T15:48:28.544Z,92.30
2018-09-20T15:50:57.087Z,92.70
2018-09-20T15:53:25.772Z,92.40
2018-09-20T15:55:54.515Z,92.70
2018-09-20T15:58:23.126Z,93.30
2018-09-20T16:00:51.854Z,93.40
2018-09-20T16:03:20.720Z,92.60
2018-09-20T16:05:49.410Z,93.00
2018-09-20T16:08:17.991Z,92.50
2018-09-20T16:10:46.940Z,92.20
2018-09-20T16:13:15.712Z,92.30
2018-09-20T16:15:44.289Z,92.50
2018-09-20T16:18:12.834Z,92.30
2018-09-20T16:20:41.379Z,92.60
2018-09-20T16:23:10.128Z,92.00
2018-09-20T16:25:38.662Z,92.00
2018-09-20T16:28:19.500Z,92.40
2018-09-20T16:31:10.532Z,92.70
2018-09-20T16:35:53.100Z,92.50
2018-09-20T16:38:30.227Z,92.90
2018-09-20T16:41:00.915Z,92.40
2018-09-20T16:43:29.925Z,92.40
2018-09-20T16:45:58.876Z,92.60
2018-09-20T16:48:27.529Z,92.50
2018-09-20T16:50:56.315Z,92.20
2018-09-20T16:53:25.302Z,92.80
2018-09-20T16:55:53.847Z,92.90
2018-09-20T16:58:22.488Z,93.10
2018-09-20T17:00:51.138Z,93.40
2018-09-20T17:03:19.685Z,93.40
2018-09-20T17:05:48.353Z,92.70
2018-09-20T17:08:16.881Z,93.40
2018-09-20T17:10:45.510Z,93.60
2018-09-20T17:13:14.095Z,92.60
2018-09-20T17:15:42.879Z,92.80
2018-09-20T17:18:11.382Z,92.50
2018-09-20T17:20:40.432Z,92.40
2018-09-20T17:23:09.038Z,92.40
2018-09-20T17:25:37.781Z,92.00
2018-09-20T17:28:06.577Z,92.00
2018-09-20T17:30:35.195Z,91.60
2018-09-20T17:33:03.808Z,91.70
2018-09-20T17:35:32.975Z,92.00
2018-09-20T17:38:03.362Z,92.60
2018-09-20T17:40:33.562Z,91.90
2018-09-20T17:43:04.902Z,93.30
2018-09-20T17:45:33.601Z,93.80
2018-09-20T17:48:02.128Z,93.60
2018-09-20T17:50:30.702Z,94.00
2018-09-20T17:52:59.993Z,93.40
2018-09-20T17:55:29.212Z,93.70
2018-09-20T17:57:58.519Z,93.70
2018-09-20T18:00:27.046Z,93.90
2018-09-20T18:02:55.671Z,94.40
2018-09-20T18:05:24.497Z,94.20
2018-09-20T18:07:54.015Z,94.20
2018-09-20T18:10:22.688Z,94.40
2018-09-20T18:12:51.423Z,94.40
2018-09-20T18:15:20.133Z,94.50
2018-09-20T18:17:48.848Z,94.50
2018-09-20T18:20:17.475Z,94.70
2018-09-20T18:22:46.179Z,94.80
2018-09-20T18:25:14.939Z,94.80
2018-09-20T18:27:43.609Z,95.20
2018-09-20T18:30:12.154Z,95.10
2018-09-20T18:32:41.089Z,95.40
2018-09-20T18:35:09.940Z,95.90
2018-09-20T18:37:39.560Z,95.50
2018-09-20T18:40:08.139Z,95.30
2018-09-20T18:42:37.026Z,95.10
2018-09-20T18:45:05.914Z,95.30
2018-09-20T18:47:34.459Z,95.10
2018-09-20T18:50:03.196Z,95.10
2018-09-20T18:52:32.054Z,95.10
2018-09-20T18:55:00.647Z,94.90
2018-09-20T18:57:29.222Z,94.80
2018-09-20T18:59:57.775Z,94.90
2018-09-20T19:02:26.388Z,94.80
2018-09-20T19:04:54.921Z,94.80
2018-09-20T19:07:23.611Z,94.50
2018-09-20T19:09:52.176Z,94.50
2018-09-20T19:12:20.996Z,94.40
2018-09-20T19:14:49.731Z,94.40
2018-09-20T19:17:18.490Z,94.20
2018-09-20T19:19:47.464Z,94.20
2018-09-20T19:22:16.279Z,94.30
2018-09-20T19:24:45.021Z,94.20
2018-09-20T19:27:13.636Z,94.20
2018-09-20T19:29:42.292Z,94.40
2018-09-20T19:32:10.848Z,94.30
2018-09-20T19:34:39.411Z,94.00
2018-09-20T19:37:08.175Z,94.10
2018-09-20T19:39:36.817Z,94.30
2018-09-20T19:42:05.367Z,94.10
2018-09-20T19:44:34.200Z,94.40
2018-09-20T19:47:02.813Z,95.10
2018-09-20T19:49:31.447Z,95.40
2018-09-20T19:52:00.140Z,95.30
2018-09-20T19:54:28.761Z,95.90
2018-09-20T19:56:57.432Z,96.00
2018-09-20T19:59:26.000Z,96.70
2018-09-20T20:01:54.762Z,96.80
2018-09-20T20:04:23.892Z,96.90
2018-09-20T20:06:52.530Z,96.80
2018-09-20T20:09:21.469Z,96.80
2018-09-20T20:11:50.100Z,97.40
2018-09-20T20:14:18.761Z,97.80
2018-09-20T20:16:47.289Z,97.50
2018-09-20T20:19:15.992Z,97.80
2018-09-20T20:21:44.656Z,97.50
2018-09-20T20:24:13.244Z,98.10
2018-09-20T20:26:41.902Z,98.10
2018-09-20T20:29:10.453Z,98.00
2018-09-20T20:31:39.156Z,97.50
2018-09-20T20:34:07.929Z,97.30
2018-09-20T20:36:36.437Z,98.00
2018-09-20T20:39:07.557Z,97.80
2018-09-20T20:41:36.227Z,96.40
2018-09-20T20:44:04.766Z,96.20
2018-09-20T20:46:33.291Z,95.90
2018-09-20T20:49:01.980Z,96.50
2018-09-20T20:51:30.637Z,96.00
2018-09-20T20:53:59.219Z,96.70
2018-09-20T20:56:27.791Z,95.60
2018-09-20T20:58:56.354Z,95.70
2018-09-20T21:01:25.275Z,96.00
2018-09-20T21:03:54.071Z,95.80
2018-09-20T21:06:22.555Z,96.40
2018-09-20T21:08:51.182Z,96.20
2018-09-20T21:11:19.899Z,96.40
2018-09-20T21:13:48.513Z,96.50
2018-09-20T21:16:17.278Z,96.30
2018-09-20T21:18:46.012Z,96.50
2018-09-20T21:21:14.687Z,95.60
2018-09-20T21:23:43.224Z,96.40
2018-09-20T21:26:12.051Z,95.40
2018-09-20T21:28:40.703Z,95.80
2018-09-20T21:31:09.471Z,95.30
2018-09-20T21:33:38.353Z,95.30
2018-09-20T21:36:07.133Z,95.10
2018-09-20T21:38:35.756Z,95.20
2018-09-20T21:41:04.274Z,95.10
2018-09-20T21:43:33.429Z,95.20
2018-09-20T21:46:02.298Z,95.20
2018-09-20T21:48:30.935Z,95.30
2018-09-20T21:50:59.632Z,95.00
2018-09-20T21:53:28.094Z,94.90
2018-09-20T21:55:56.770Z,95.30
2018-09-20T21:58:25.366Z,95.10
2018-09-20T22:00:59.291Z,94.90
2018-09-20T22:03:27.766Z,94.90
2018-09-20T22:05:56.361Z,94.90
2018-09-20T22:08:25.114Z,94.90
2018-09-20T22:10:53.639Z,94.90
2018-09-20T22:13:22.157Z,94.70
2018-09-20T22:15:50.790Z,94.90
2018-09-20T22:18:19.312Z,94.90
2018-09-20T22:20:47.931Z,94.80
2018-09-20T22:23:16.722Z,94.80
2018-09-20T22:25:45.407Z,94.90
2018-09-20T22:28:14.027Z,95.20
2018-09-20T22:30:42.580Z,95.10
2018-09-20T22:33:11.189Z,94.90
2018-09-20T22:35:39.847Z,94.90
2018-09-20T22:38:08.351Z,95.00
2018-09-20T22:40:37.008Z,95.00
2018-09-20T22:43:05.671Z,94.90
2018-09-20T22:45:34.139Z,94.90
2018-09-20T22:48:02.775Z,94.90
2018-09-20T22:50:31.319Z,94.90
2018-09-20T22:52:59.835Z,94.90
2018-09-20T22:55:28.539Z,95.00
2018-09-20T22:57:57.140Z,95.00
2018-09-20T23:00:25.632Z,95.10
2018-09-20T23:02:55.711Z,95.20
2018-09-20T23:05:24.588Z,95.20
2018-09-20T23:07:53.276Z,95.20
2018-09-20T23:10:22.049Z,95.30
2018-09-20T23:12:50.606Z,95.40
2018-09-20T23:15:19.339Z,95.50
2018-09-20T23:17:47.803Z,95.60
2018-09-20T23:20:16.453Z,95.60
2018-09-20T23:22:44.948Z,95.80
2018-09-20T23:25:13.445Z,95.80
2018-09-20T23:27:41.916Z,95.90
2018-09-20T23:30:10.440Z,96.00
2018-09-20T23:32:39.395Z,96.00
2018-09-20T23:35:08.063Z,96.00
2018-09-20T23:37:36.547Z,96.10
2018-09-20T23:40:05.221Z,96.50
2018-09-20T23:42:33.721Z,96.20
2018-09-20T23:45:02.252Z,96.30
2018-09-20T23:47:30.758Z,96.60
2018-09-20T23:49:59.243Z,96.40
2018-09-20T23:52:27.706Z,96.60
2018-09-20T23:54:56.212Z,96.60
2018-09-20T23:57:24.910Z,96.70
2018-09-20T23:59:53.575Z,97.00
